createdAt,value
2019-05-19T00:00:16.179Z,20.50
2019-05-19T00:01:20.402Z,22.75
2019-05-19T00:02:27.220Z,22.25
2019-05-19T00:03:33.117Z,20.50
2019-05-19T00:04:36.425Z,24.00
2019-05-19T00:05:39.791Z,23.25
2019-05-19T00:06:42.799Z,22.75
2019-05-19T00:07:46.939Z,22.75
2019-05-19T00:08:49.793Z,25.50
2019-05-19T00:09:53.738Z,24.50
2019-05-19T00:11:00.877Z,23.25
2019-05-19T00:12:04.419Z,24.50
2019-05-19T00:13:07.740Z,26.25
2019-05-19T00:14:12.961Z,24.75
2019-05-19T00:15:17.826Z,25.00
2019-05-19T00:16:21.488Z,25.25
2019-05-19T00:17:24.344Z,22.50
2019-05-19T00:18:27.777Z,25.00
2019-05-19T00:19:30.603Z,21.75
2019-05-19T00:20:36.767Z,23.50
2019-05-19T00:21:39.615Z,22.50
2019-05-19T00:22:43.393Z,23.00
2019-05-19T00:23:49.384Z,21.75
2019-05-19T00:24:52.739Z,25.00
2019-05-19T00:25:55.681Z,24.00
2019-05-19T00:26:59.119Z,23.25
2019-05-19T00:28:01.947Z,22.25
2019-05-19T00:29:05.878Z,21.00
2019-05-19T00:30:11.154Z,20.00
2019-05-19T00:31:14.524Z,23.00
2019-05-19T00:32:17.396Z,21.25
2019-05-19T00:33:20.847Z,21.50
2019-05-19T00:34:23.668Z,22.25
2019-05-19T00:35:28.542Z,24.75
2019-05-19T00:36:32.741Z,22.75
2019-05-19T00:37:36.200Z,21.75
2019-05-19T00:38:39.061Z,21.75
2019-05-19T00:39:42.424Z,21.00
2019-05-19T00:40:45.722Z,20.00
2019-05-19T00:41:49.654Z,21.25
2019-05-19T00:42:52.452Z,23.25
2019-05-19T00:43:58.630Z,23.00
2019-05-19T00:45:01.438Z,20.00
2019-05-19T00:46:05.301Z,23.25
2019-05-19T00:47:08.247Z,23.00
2019-05-19T00:48:11.991Z,22.75
2019-05-19T00:49:14.877Z,23.25
2019-05-19T00:50:18.275Z,24.75
2019-05-19T00:51:21.054Z,27.75
2019-05-19T00:52:24.444Z,31.50
2019-05-19T00:53:27.293Z,35.50
2019-05-19T00:54:32.594Z,36.25
2019-05-19T00:55:35.413Z,32.00
2019-05-19T00:56:38.757Z,25.00
2019-05-19T00:57:41.593Z,27.50
2019-05-19T00:58:46.060Z,25.75
2019-05-19T00:59:48.855Z,25.00
2019-05-19T01:00:53.080Z,24.25
2019-05-19T01:01:55.876Z,24.25
2019-05-19T01:02:59.231Z,21.00
2019-05-19T01:04:02.077Z,24.25
2019-05-19T01:05:05.878Z,22.25
2019-05-19T01:06:08.795Z,20.75
2019-05-19T01:07:12.711Z,25.25
2019-05-19T01:08:15.576Z,23.50
2019-05-19T01:09:18.991Z,19.50
2019-05-19T01:10:21.844Z,24.75
2019-05-19T01:11:25.196Z,24.50
2019-05-19T01:12:28.017Z,25.75
2019-05-19T01:13:31.897Z,21.25
2019-05-19T01:14:34.719Z,23.25
2019-05-19T01:15:38.158Z,23.25
2019-05-19T01:16:41.403Z,22.00
2019-05-19T01:17:44.750Z,25.00
2019-05-19T01:18:48.664Z,24.50
2019-05-19T01:19:56.141Z,24.00
2019-05-19T01:20:57.078Z,21.25
2019-05-19T01:22:00.802Z,23.00
2019-05-19T01:23:03.623Z,24.75
2019-05-19T01:24:07.082Z,25.25
2019-05-19T01:25:09.895Z,26.75
2019-05-19T01:26:15.096Z,22.00
2019-05-19T01:27:18.330Z,26.75
2019-05-19T01:28:21.733Z,24.00
2019-05-19T01:29:24.641Z,27.25
2019-05-19T01:30:29.359Z,25.50
2019-05-19T01:31:32.246Z,26.75
2019-05-19T01:32:36.070Z,23.75
2019-05-19T01:33:38.895Z,22.25
2019-05-19T01:34:42.314Z,20.00
2019-05-19T01:35:45.117Z,22.00
2019-05-19T01:36:48.548Z,23.75
2019-05-19T01:37:54.439Z,22.25
2019-05-19T01:38:58.160Z,25.00
2019-05-19T01:40:07.059Z,26.25
2019-05-19T01:41:10.423Z,21.00
2019-05-19T01:42:16.049Z,23.00
2019-05-19T01:43:19.401Z,22.50
2019-05-19T01:44:22.219Z,21.75
2019-05-19T01:45:25.603Z,27.25
2019-05-19T01:46:28.914Z,25.00
2019-05-19T01:47:32.303Z,24.50
2019-05-19T01:48:36.465Z,26.00
2019-05-19T01:49:40.253Z,22.50
2019-05-19T01:51:32.415Z,25.00
2019-05-19T01:51:50.058Z,20.00
2019-05-19T01:52:54.794Z,21.75
2019-05-19T01:53:58.142Z,23.75
2019-05-19T01:55:01.498Z,24.25
2019-05-19T01:56:04.934Z,23.25
2019-05-19T01:57:07.766Z,23.75
2019-05-19T01:58:11.680Z,19.00
2019-05-19T01:59:14.520Z,20.75
2019-05-19T02:00:17.987Z,21.75
2019-05-19T02:01:21.166Z,25.00
2019-05-19T02:02:25.035Z,23.00
2019-05-19T02:03:29.810Z,23.50
2019-05-19T02:04:33.345Z,21.25
2019-05-19T02:05:39.025Z,22.25
2019-05-19T02:06:42.424Z,22.00
2019-05-19T02:07:45.247Z,25.00
2019-05-19T02:08:51.111Z,24.50
2019-05-19T02:09:54.495Z,25.00
2019-05-19T02:10:58.410Z,22.50
2019-05-19T02:12:04.246Z,21.25
2019-05-19T02:13:14.185Z,22.25
2019-05-19T02:14:17.421Z,22.75
2019-05-19T02:15:23.583Z,23.50
2019-05-19T02:16:27.827Z,21.50
2019-05-19T02:17:31.551Z,20.50
2019-05-19T02:18:34.453Z,22.25
2019-05-19T02:19:38.846Z,23.50
2019-05-19T02:20:41.747Z,21.25
2019-05-19T02:22:08.100Z,21.50
2019-05-19T02:23:11.436Z,18.50
2019-05-19T02:24:15.219Z,18.75
2019-05-19T02:25:18.085Z,21.00
2019-05-19T02:26:21.434Z,20.25
2019-05-19T02:27:24.260Z,24.50
2019-05-19T02:28:27.682Z,21.00
2019-05-19T02:29:33.537Z,25.00
2019-05-19T02:30:38.374Z,22.75
2019-05-19T02:31:41.988Z,18.75
2019-05-19T02:32:45.438Z,22.00
2019-05-19T02:33:48.272Z,19.50
2019-05-19T02:34:51.879Z,21.75
2019-05-19T02:35:54.873Z,22.25
2019-05-19T02:36:58.737Z,20.50
2019-05-19T02:38:01.544Z,22.00
2019-05-19T02:39:06.709Z,22.00
2019-05-19T02:40:09.559Z,22.25
2019-05-19T02:41:13.013Z,24.25
2019-05-19T02:42:16.264Z,20.00
2019-05-19T02:43:19.717Z,19.75
2019-05-19T02:44:23.828Z,21.00
2019-05-19T02:45:27.272Z,22.00
2019-05-19T02:46:32.942Z,18.00
2019-05-19T02:47:36.354Z,21.00
2019-05-19T02:48:39.657Z,18.00
2019-05-19T02:49:43.049Z,19.00
2019-05-19T02:50:52.186Z,22.25
2019-05-19T02:51:51.234Z,21.75
2019-05-19T02:52:54.090Z,22.25
2019-05-19T02:53:57.529Z,23.00
2019-05-19T02:55:00.932Z,21.00
2019-05-19T02:56:04.502Z,21.00
2019-05-19T02:57:07.337Z,21.00
2019-05-19T02:58:10.789Z,23.75
2019-05-19T02:59:13.627Z,22.75
2019-05-19T03:00:17.034Z,21.50
2019-05-19T03:01:20.325Z,25.00
2019-05-19T03:02:23.968Z,20.50
2019-05-19T03:03:26.861Z,19.25
2019-05-19T03:04:30.339Z,21.75
2019-05-19T03:05:33.272Z,21.50
2019-05-19T03:06:36.744Z,21.00
2019-05-19T03:07:39.983Z,17.25
2019-05-19T03:08:43.671Z,21.75
2019-05-19T03:09:46.600Z,19.25
2019-05-19T03:10:50.067Z,21.25
2019-05-19T03:11:53.171Z,18.00
2019-05-19T03:12:58.830Z,16.75
2019-05-19T03:14:02.916Z,21.00
2019-05-19T03:15:06.419Z,18.00
2019-05-19T03:16:09.389Z,21.50
2019-05-19T03:17:12.841Z,19.00
2019-05-19T03:18:16.272Z,20.75
2019-05-19T03:19:21.760Z,20.50
2019-05-19T03:20:25.086Z,21.25
2019-05-19T03:21:28.546Z,21.00
2019-05-19T03:22:34.605Z,24.00
2019-05-19T03:23:41.195Z,20.25
2019-05-19T03:24:44.071Z,23.75
2019-05-19T03:25:47.460Z,18.00
2019-05-19T03:26:50.338Z,21.50
2019-05-19T03:27:54.146Z,18.25
2019-05-19T03:28:58.322Z,17.75
2019-05-19T03:30:20.461Z,23.00
2019-05-19T03:31:45.617Z,17.25
2019-05-19T03:32:53.189Z,20.50
2019-05-19T03:33:59.143Z,23.00
2019-05-19T03:35:02.098Z,19.75
2019-05-19T03:36:07.584Z,21.75
2019-05-19T03:38:48.481Z,20.00
2019-05-19T03:39:51.988Z,17.50
2019-05-19T03:40:54.886Z,23.25
2019-05-19T03:41:58.348Z,19.00
2019-05-19T03:43:01.203Z,21.50
2019-05-19T03:44:04.636Z,20.00
2019-05-19T03:45:07.803Z,18.00
2019-05-19T03:46:11.395Z,18.75
2019-05-19T03:47:14.264Z,19.50
2019-05-19T03:48:17.830Z,21.75
2019-05-19T03:49:20.669Z,20.25
2019-05-19T03:50:24.538Z,19.50
2019-05-19T03:51:31.358Z,18.50
2019-05-19T03:52:32.912Z,20.75
2019-05-19T03:53:35.821Z,20.00
2019-05-19T03:54:39.263Z,23.00
2019-05-19T03:55:42.070Z,18.00
2019-05-19T03:56:45.538Z,17.50
2019-05-19T03:57:50.600Z,18.25
2019-05-19T03:58:55.189Z,19.50
2019-05-19T03:59:58.120Z,19.75
2019-05-19T04:01:01.497Z,18.00
2019-05-19T04:02:04.342Z,19.75
2019-05-19T04:03:07.774Z,17.50
2019-05-19T04:04:11.003Z,19.00
2019-05-19T04:05:14.369Z,19.75
2019-05-19T04:06:17.173Z,20.00
2019-05-19T04:07:20.662Z,21.00
2019-05-19T04:08:23.692Z,23.25
2019-05-19T04:09:27.179Z,21.50
2019-05-19T04:10:30.580Z,21.50
2019-05-19T04:11:34.210Z,19.50
2019-05-19T04:12:43.282Z,18.25
2019-05-19T04:13:42.683Z,19.75
2019-05-19T04:14:45.649Z,18.50
2019-05-19T04:16:19.349Z,22.25
2019-05-19T04:16:53.980Z,21.00
2019-05-19T04:17:57.414Z,19.25
2019-05-19T04:19:00.218Z,20.50
2019-05-19T04:20:03.646Z,20.50
2019-05-19T04:21:06.468Z,19.75
2019-05-19T04:22:09.825Z,20.75
2019-05-19T04:23:13.113Z,21.25
2019-05-19T04:24:16.725Z,24.75
2019-05-19T04:25:19.612Z,21.00
2019-05-19T04:26:22.989Z,22.75
2019-05-19T04:27:25.825Z,25.00
2019-05-19T04:28:29.168Z,19.75
2019-05-19T04:29:32.544Z,19.75
2019-05-19T04:30:36.006Z,18.75
2019-05-19T04:31:38.967Z,19.50
2019-05-19T04:32:42.352Z,19.75
2019-05-19T04:33:45.258Z,19.75
2019-05-19T04:34:50.847Z,16.75
2019-05-19T04:35:57.557Z,18.25
2019-05-19T04:36:59.040Z,18.50
2019-05-19T04:38:02.447Z,20.75
2019-05-19T04:39:07.506Z,22.75
2019-05-19T04:40:10.409Z,19.25
2019-05-19T04:41:14.103Z,20.50
2019-05-19T04:42:17.431Z,23.25
2019-05-19T04:43:20.888Z,20.25
2019-05-19T04:44:23.710Z,18.00
2019-05-19T04:45:27.084Z,19.75
2019-05-19T04:46:29.940Z,21.25
2019-05-19T04:47:33.368Z,23.00
2019-05-19T04:48:36.246Z,22.75
2019-05-19T04:49:39.733Z,28.25
2019-05-19T04:50:42.951Z,25.75
2019-05-19T04:51:46.351Z,25.25
2019-05-19T04:52:49.199Z,26.75
2019-05-19T04:53:54.882Z,21.00
2019-05-19T04:54:59.951Z,20.50
2019-05-19T04:56:03.356Z,23.75
2019-05-19T04:57:06.572Z,21.25
2019-05-19T04:58:10.033Z,23.00
2019-05-19T04:59:12.937Z,20.50
2019-05-19T05:00:16.718Z,21.75
2019-05-19T05:01:19.633Z,19.75
2019-05-19T05:02:23.058Z,21.25
2019-05-19T05:03:28.296Z,23.50
2019-05-19T05:04:34.276Z,21.00
2019-05-19T05:05:37.094Z,22.25
2019-05-19T05:06:40.899Z,18.25
2019-05-19T05:07:43.702Z,19.25
2019-05-19T05:08:47.134Z,20.50
2019-05-19T05:09:50.316Z,20.75
2019-05-19T05:10:54.284Z,20.75
2019-05-19T05:11:57.105Z,23.75
2019-05-19T05:13:00.900Z,22.75
2019-05-19T05:14:03.821Z,22.75
2019-05-19T05:15:07.174Z,22.00
2019-05-19T05:16:13.043Z,23.50
2019-05-19T05:17:16.423Z,21.50
2019-05-19T05:18:19.250Z,21.75
2019-05-19T05:19:27.859Z,23.25
2019-05-19T05:20:30.796Z,21.50
2019-05-19T05:21:34.276Z,22.00
2019-05-19T05:22:37.383Z,21.00
2019-05-19T05:23:40.806Z,22.00
2019-05-19T05:24:43.649Z,17.75
2019-05-19T05:25:48.199Z,20.00
2019-05-19T05:26:51.007Z,19.00
2019-05-19T05:27:54.381Z,19.00
2019-05-19T05:28:57.238Z,19.00
2019-05-19T05:30:00.644Z,19.00
2019-05-19T05:44:07.899Z,20.75
2019-05-19T05:45:11.399Z,18.00
2019-05-19T05:46:14.199Z,20.50
2019-05-19T05:47:21.463Z,23.00
2019-05-19T05:48:25.310Z,25.00
2019-05-19T05:49:31.906Z,22.75
2019-05-19T05:50:35.779Z,24.75
2019-05-19T05:51:39.280Z,20.25
2019-05-19T05:52:47.021Z,22.25
2019-05-19T05:53:50.400Z,21.00
2019-05-19T05:54:55.658Z,21.50
2019-05-19T05:55:59.424Z,23.75
2019-05-19T05:57:02.324Z,24.00
2019-05-19T05:58:05.685Z,21.75
2019-05-19T05:59:11.984Z,23.00
2019-05-19T06:00:21.354Z,21.75
2019-05-19T06:01:26.947Z,20.00
2019-05-19T06:02:30.394Z,21.00
2019-05-19T06:03:33.216Z,21.50
2019-05-19T06:04:36.568Z,23.00
2019-05-19T06:05:39.529Z,20.50
2019-05-19T06:06:45.784Z,22.00
2019-05-19T06:07:48.350Z,27.75
2019-05-19T06:08:54.158Z,24.25
2019-05-19T06:09:58.357Z,24.50
2019-05-19T06:11:03.431Z,24.50
2019-05-19T06:12:07.667Z,23.00
2019-05-19T06:13:14.064Z,24.50
2019-05-19T06:14:17.318Z,22.75
2019-05-19T06:15:21.933Z,24.75
2019-05-19T06:16:26.061Z,24.25
2019-05-19T06:17:29.528Z,24.00
2019-05-19T06:18:35.342Z,22.50
2019-05-19T06:19:38.792Z,25.75
2019-05-19T06:20:44.993Z,24.25
2019-05-19T06:21:48.414Z,26.00
2019-05-19T06:22:56.996Z,25.00
2019-05-19T06:23:59.831Z,25.25
2019-05-19T06:25:02.723Z,24.25
2019-05-19T06:26:06.354Z,25.50
2019-05-19T06:27:09.607Z,25.50
2019-05-19T06:28:13.468Z,26.00
2019-05-19T06:29:21.722Z,27.50
2019-05-19T06:30:25.168Z,28.75
2019-05-19T06:31:28.209Z,25.50
2019-05-19T06:32:52.079Z,22.25
2019-05-19T06:33:54.949Z,28.00
2019-05-19T06:34:58.597Z,28.00
2019-05-19T06:36:01.539Z,28.75
2019-05-19T06:37:05.104Z,29.00
2019-05-19T06:38:08.554Z,26.00
2019-05-19T06:39:12.524Z,23.00
2019-05-19T06:40:15.908Z,24.75
2019-05-19T06:41:20.663Z,25.75
2019-05-19T06:42:26.648Z,22.00
2019-05-19T06:43:31.178Z,23.00
2019-05-19T06:44:38.781Z,22.75
2019-05-19T06:45:49.948Z,22.50
2019-05-19T06:46:52.806Z,24.75
2019-05-19T06:47:56.363Z,23.25
2019-05-19T06:48:59.596Z,22.50
2019-05-19T06:50:02.992Z,22.25
2019-05-19T06:52:33.397Z,22.00
2019-05-19T06:53:38.514Z,21.00
2019-05-19T06:54:41.923Z,25.75
2019-05-19T06:55:44.773Z,23.50
2019-05-19T06:56:48.167Z,23.75
2019-05-19T06:57:51.501Z,22.75
2019-05-19T06:58:54.957Z,22.75
2019-05-19T06:59:57.787Z,25.75
2019-05-19T07:01:01.186Z,25.75
2019-05-19T07:02:04.004Z,23.75
2019-05-19T07:03:07.455Z,21.50
2019-05-19T07:04:10.918Z,17.75
2019-05-19T07:05:14.330Z,20.50
2019-05-19T07:06:17.160Z,21.00
2019-05-19T07:07:20.749Z,24.00
2019-05-19T07:08:23.586Z,23.00
2019-05-19T07:09:30.039Z,20.00
2019-05-19T07:10:33.432Z,21.25
2019-05-19T07:11:38.267Z,23.25
2019-05-19T07:12:41.179Z,20.50
2019-05-19T07:13:44.612Z,20.75
2019-05-19T07:14:47.449Z,23.50
2019-05-19T07:15:57.384Z,19.75
2019-05-19T07:17:00.623Z,19.50
2019-05-19T07:18:04.090Z,18.50
2019-05-19T07:19:06.895Z,18.00
2019-05-19T07:20:10.320Z,19.50
2019-05-19T07:21:13.144Z,21.00
2019-05-19T07:22:18.437Z,21.75
2019-05-19T07:23:28.194Z,21.50
2019-05-19T07:24:31.106Z,22.75
2019-05-19T07:25:33.978Z,19.75
2019-05-19T07:26:38.315Z,21.25
2019-05-19T07:27:43.929Z,21.50
2019-05-19T07:28:47.302Z,18.75
2019-05-19T07:29:54.705Z,21.50
2019-05-19T07:30:58.105Z,20.25
2019-05-19T07:32:00.928Z,24.25
2019-05-19T07:33:04.580Z,21.00
2019-05-19T07:34:07.368Z,21.25
2019-05-19T07:35:10.813Z,20.75
2019-05-19T07:36:14.077Z,24.00
2019-05-19T07:37:17.644Z,20.75
2019-05-19T07:38:20.600Z,20.50
2019-05-19T07:39:24.027Z,20.00
2019-05-19T07:40:27.097Z,22.25
2019-05-19T07:41:30.565Z,22.00
2019-05-19T07:42:36.967Z,20.50
2019-05-19T07:43:40.581Z,19.00
2019-05-19T07:44:49.003Z,19.75
2019-05-19T07:45:52.445Z,19.50
2019-05-19T07:46:55.670Z,23.00
2019-05-19T07:47:59.199Z,19.00
2019-05-19T07:49:03.649Z,19.00
2019-05-19T07:50:10.286Z,17.00
2019-05-19T07:51:15.319Z,17.00
2019-05-19T07:52:20.309Z,19.50
2019-05-19T07:53:23.176Z,21.25
2019-05-19T07:54:29.026Z,20.25
2019-05-19T07:55:32.214Z,21.00
2019-05-19T07:56:37.833Z,18.75
2019-05-19T07:57:40.652Z,19.75
2019-05-19T07:59:03.199Z,18.25
2019-05-19T08:00:06.146Z,20.00
2019-05-19T08:01:15.338Z,19.25
2019-05-19T08:02:19.824Z,19.50
2019-05-19T08:03:23.237Z,18.00
2019-05-19T08:04:26.644Z,21.00
2019-05-19T08:05:32.844Z,18.00
2019-05-19T08:06:35.690Z,18.50
2019-05-19T08:07:39.570Z,18.00
2019-05-19T08:08:43.176Z,18.75
2019-05-19T08:09:49.812Z,17.50
2019-05-19T08:10:52.684Z,17.50
2019-05-19T08:11:56.160Z,19.00
2019-05-19T08:12:59.061Z,19.50
2019-05-19T08:14:02.849Z,22.50
2019-05-19T08:15:05.726Z,17.25
2019-05-19T08:16:10.078Z,19.25
2019-05-19T08:17:13.404Z,21.00
2019-05-19T08:18:36.266Z,19.00
2019-05-19T08:19:30.584Z,20.50
2019-05-19T08:20:37.921Z,18.00
2019-05-19T08:21:40.730Z,18.00
2019-05-19T08:22:44.195Z,17.25
2019-05-19T08:23:59.757Z,19.00
2019-05-19T08:24:53.238Z,17.50
2019-05-19T08:26:01.397Z,17.75
2019-05-19T08:27:04.810Z,18.00
2019-05-19T08:28:09.114Z,17.50
2019-05-19T08:29:16.268Z,16.75
2019-05-19T08:30:19.455Z,19.75
2019-05-19T08:31:26.247Z,18.00
2019-05-19T08:32:29.077Z,18.00
2019-05-19T08:33:32.501Z,19.00
2019-05-19T08:34:38.187Z,16.00
2019-05-19T08:35:41.548Z,16.50
2019-05-19T08:36:46.385Z,20.75
2019-05-19T08:37:50.937Z,17.25
2019-05-19T08:38:56.594Z,17.00
2019-05-19T08:40:00.148Z,16.00
2019-05-19T08:41:06.005Z,16.50
2019-05-19T08:42:09.766Z,15.75
2019-05-19T08:43:12.612Z,15.00
2019-05-19T08:44:16.623Z,16.50
2019-05-19T08:45:19.431Z,16.50
2019-05-19T08:46:22.940Z,16.75
2019-05-19T08:47:25.772Z,17.50
2019-05-19T08:48:29.250Z,16.75
2019-05-19T08:49:32.178Z,15.00
2019-05-19T08:50:37.457Z,16.25
2019-05-19T08:51:40.339Z,18.00
2019-05-19T08:52:43.735Z,16.00
2019-05-19T08:53:48.797Z,18.75
2019-05-19T08:54:52.586Z,20.75
2019-05-19T08:55:55.561Z,17.75
2019-05-19T08:57:16.159Z,14.75
2019-05-19T08:58:19.004Z,15.75
2019-05-19T08:59:22.461Z,16.00
2019-05-19T09:00:25.292Z,14.75
2019-05-19T09:01:32.400Z,16.75
2019-05-19T09:02:35.301Z,16.00
2019-05-19T09:03:39.255Z,13.00
2019-05-19T09:04:42.111Z,16.50
2019-05-19T09:05:49.888Z,15.25
2019-05-19T09:06:52.825Z,14.75
2019-05-19T09:07:56.209Z,17.50
2019-05-19T09:09:01.756Z,13.75
2019-05-19T09:10:05.682Z,12.50
2019-05-19T09:11:11.735Z,13.25
2019-05-19T09:12:15.196Z,14.75
2019-05-19T09:13:19.222Z,18.00
2019-05-19T09:14:22.585Z,14.25
2019-05-19T09:15:28.272Z,22.75
2019-05-19T09:16:33.309Z,16.75
2019-05-19T09:17:36.430Z,16.25
2019-05-19T09:18:42.582Z,14.00
2019-05-19T09:19:45.607Z,14.25
2019-05-19T09:20:57.865Z,14.25
2019-05-19T09:22:02.991Z,17.00
2019-05-19T09:23:06.591Z,14.00
2019-05-19T09:24:09.849Z,14.50
2019-05-19T09:25:13.473Z,13.75
2019-05-19T09:26:26.995Z,15.00
2019-05-19T09:27:22.221Z,15.00
2019-05-19T09:28:28.080Z,11.50
2019-05-19T09:29:36.950Z,13.50
2019-05-19T09:30:39.495Z,14.00
2019-05-19T09:31:42.960Z,13.50
2019-05-19T09:32:45.855Z,15.75
2019-05-19T09:33:49.658Z,12.50
2019-05-19T09:34:52.671Z,15.25
2019-05-19T09:35:57.653Z,13.25
2019-05-19T09:37:00.758Z,14.00
2019-05-19T09:38:10.445Z,15.00
2019-05-19T09:39:13.547Z,17.75
2019-05-19T09:40:26.139Z,18.25
2019-05-19T09:41:27.760Z,13.75
2019-05-19T09:42:36.694Z,17.25
2019-05-19T09:43:41.898Z,14.00
2019-05-19T09:44:45.560Z,17.00
2019-05-19T09:45:49.944Z,15.75
2019-05-19T09:46:54.499Z,14.75
2019-05-19T09:48:16.402Z,14.00
2019-05-19T09:49:35.819Z,13.00
2019-05-19T09:50:52.015Z,14.50
2019-05-19T09:51:55.811Z,14.00
2019-05-19T09:52:58.700Z,14.50
2019-05-19T09:54:05.061Z,15.00
2019-05-19T09:55:07.979Z,15.00
2019-05-19T09:56:12.471Z,13.00
2019-05-19T09:57:15.377Z,15.50
2019-05-19T09:58:20.087Z,14.25
2019-05-19T09:59:26.052Z,14.00
2019-05-19T10:00:30.204Z,15.25
2019-05-19T10:01:37.494Z,14.00
2019-05-19T10:02:40.936Z,15.00
2019-05-19T10:03:43.813Z,14.25
2019-05-19T10:04:47.193Z,15.00
2019-05-19T10:05:50.547Z,15.00
2019-05-19T10:06:56.863Z,15.25
2019-05-19T10:07:59.783Z,15.50
2019-05-19T10:09:04.079Z,15.00
2019-05-19T10:10:07.978Z,14.50
2019-05-19T10:11:19.090Z,15.25
2019-05-19T10:12:17.487Z,14.00
2019-05-19T10:13:22.001Z,14.00
2019-05-19T10:14:24.880Z,14.00
2019-05-19T10:15:28.284Z,13.25
2019-05-19T10:16:31.256Z,16.00
2019-05-19T10:17:37.359Z,15.25
2019-05-19T10:18:40.358Z,15.50
2019-05-19T10:19:44.278Z,14.00
2019-05-19T10:20:50.315Z,14.75
2019-05-19T10:21:52.379Z,14.50
2019-05-19T10:22:55.476Z,15.25
2019-05-19T10:24:02.966Z,14.00
2019-05-19T10:25:21.016Z,13.75
2019-05-19T10:26:17.249Z,13.25
2019-05-19T10:27:21.723Z,17.00
2019-05-19T10:28:25.391Z,14.00
2019-05-19T10:29:28.265Z,15.00
2019-05-19T10:42:53.338Z,14.25
2019-05-19T10:44:05.246Z,13.75
2019-05-19T10:45:09.161Z,12.00
2019-05-19T10:46:15.092Z,15.50
2019-05-19T10:47:18.199Z,12.50
2019-05-19T10:48:22.031Z,12.00
2019-05-19T10:49:24.860Z,15.25
2019-05-19T10:50:28.315Z,11.50
2019-05-19T10:51:31.846Z,11.00
2019-05-19T10:52:35.242Z,12.50
2019-05-19T10:53:38.181Z,12.50
2019-05-19T10:54:43.274Z,13.50
2019-05-19T10:55:46.606Z,11.50
2019-05-19T10:56:51.897Z,13.50
2019-05-19T10:57:55.010Z,14.50
2019-05-19T10:58:58.597Z,14.75
2019-05-19T11:00:04.730Z,12.00
2019-05-19T11:01:10.665Z,15.00
2019-05-19T11:02:19.716Z,13.50
2019-05-19T11:03:23.317Z,14.50
2019-05-19T11:04:26.382Z,12.00
2019-05-19T11:05:31.406Z,16.00
2019-05-19T11:06:34.437Z,14.00
2019-05-19T11:07:38.665Z,13.75
2019-05-19T11:08:44.296Z,14.00
2019-05-19T11:09:52.839Z,13.00
2019-05-19T11:11:02.168Z,14.25
2019-05-19T11:12:06.752Z,14.75
2019-05-19T11:13:19.765Z,13.00
2019-05-19T11:14:25.969Z,16.00
2019-05-19T11:15:32.035Z,11.25
2019-05-19T11:16:35.627Z,11.00
2019-05-19T11:17:41.912Z,11.75
2019-05-19T11:18:47.472Z,12.00
2019-05-19T11:19:54.578Z,12.50
2019-05-19T11:20:58.168Z,12.50
2019-05-19T11:22:01.271Z,13.25
2019-05-19T11:23:06.276Z,14.00
2019-05-19T11:24:16.812Z,12.50
2019-05-19T11:25:33.006Z,15.00
2019-05-19T11:26:29.186Z,16.00
2019-05-19T11:27:32.610Z,14.25
2019-05-19T11:28:35.463Z,12.00
2019-05-19T11:29:39.377Z,12.75
2019-05-19T11:30:42.888Z,13.25
2019-05-19T11:31:46.772Z,15.00
2019-05-19T11:32:49.636Z,12.00
2019-05-19T11:34:10.953Z,13.50
2019-05-19T11:35:16.579Z,13.50
2019-05-19T11:36:20.006Z,14.00
2019-05-19T11:37:24.945Z,13.25
2019-05-19T11:38:28.462Z,15.00
2019-05-19T11:39:34.307Z,12.00
2019-05-19T11:40:37.658Z,14.50
2019-05-19T11:41:42.224Z,15.50
2019-05-19T11:42:49.258Z,14.50
2019-05-19T11:43:52.639Z,10.00
2019-05-19T11:44:59.301Z,13.25
2019-05-19T11:46:02.344Z,8.50
2019-05-19T11:47:12.811Z,8.00
2019-05-19T11:48:20.020Z,10.75
2019-05-19T11:49:25.020Z,9.00
2019-05-19T11:50:28.074Z,8.00
2019-05-19T11:51:31.929Z,8.00
2019-05-19T11:52:46.714Z,7.75
2019-05-19T11:53:50.572Z,7.75
2019-05-19T11:54:55.753Z,7.25
2019-05-19T11:56:06.616Z,6.00
2019-05-19T11:57:07.500Z,7.00
2019-05-19T11:58:13.358Z,6.00
2019-05-19T11:59:17.412Z,7.75
2019-05-19T12:00:27.548Z,6.00
2019-05-19T12:01:25.805Z,6.00
2019-05-19T12:02:29.390Z,6.00
2019-05-19T12:03:33.614Z,6.25
2019-05-19T12:04:37.444Z,6.00
2019-05-19T12:05:43.157Z,7.00
2019-05-19T12:06:52.839Z,6.00
2019-05-19T12:07:55.711Z,6.25
2019-05-19T12:08:59.001Z,6.50
2019-05-19T12:10:04.386Z,5.00
2019-05-19T12:11:08.457Z,7.50
2019-05-19T12:12:11.469Z,11.75
2019-05-19T12:13:15.415Z,14.25
2019-05-19T12:14:21.305Z,14.75
2019-05-19T12:15:28.462Z,12.00
2019-05-19T12:16:34.573Z,10.00
2019-05-19T12:17:38.491Z,6.00
2019-05-19T12:18:41.317Z,7.00
2019-05-19T12:19:46.279Z,6.50
2019-05-19T12:20:51.998Z,5.75
2019-05-19T12:21:56.301Z,7.00
2019-05-19T12:23:02.655Z,7.25
2019-05-19T12:24:06.857Z,6.00
2019-05-19T12:25:10.122Z,9.00
2019-05-19T12:26:23.355Z,6.50
2019-05-19T12:27:19.269Z,7.00
2019-05-19T12:28:25.615Z,8.00
2019-05-19T12:29:30.238Z,11.50
2019-05-19T12:30:37.306Z,9.75
2019-05-19T12:31:46.721Z,9.25
2019-05-19T12:32:59.334Z,9.00
2019-05-19T12:34:04.030Z,9.25
2019-05-19T12:35:07.530Z,9.00
2019-05-19T12:36:12.335Z,9.00
2019-05-19T12:37:15.837Z,7.00
2019-05-19T12:38:20.366Z,9.00
2019-05-19T12:39:27.444Z,10.25
2019-05-19T12:40:33.279Z,8.25
2019-05-19T12:41:36.693Z,8.75
2019-05-19T12:42:40.047Z,9.00
2019-05-19T12:43:44.337Z,6.25
2019-05-19T12:44:52.352Z,9.00
2019-05-19T12:46:16.385Z,9.00
2019-05-19T12:47:19.372Z,9.75
2019-05-19T12:48:28.888Z,8.00
2019-05-19T12:50:02.409Z,8.00
2019-05-19T12:51:07.577Z,9.00
2019-05-19T12:52:13.923Z,8.00
2019-05-19T12:53:29.237Z,8.00
2019-05-19T12:54:33.127Z,9.00
2019-05-19T12:55:36.493Z,9.00
2019-05-19T12:56:42.452Z,9.00
2019-05-19T12:57:49.156Z,8.75
2019-05-19T12:58:54.240Z,11.00
2019-05-19T13:00:02.278Z,8.00
2019-05-19T13:01:08.241Z,9.00
2019-05-19T13:02:11.629Z,9.00
2019-05-19T13:03:18.665Z,8.50
2019-05-19T13:04:24.141Z,8.50
2019-05-19T13:05:28.031Z,8.75
2019-05-19T13:06:31.297Z,8.00
2019-05-19T13:08:58.257Z,7.50
2019-05-19T13:10:02.880Z,6.75
2019-05-19T13:11:20.236Z,8.00
2019-05-19T13:12:27.455Z,8.25
2019-05-19T13:13:31.306Z,8.00
2019-05-19T13:14:39.212Z,9.00
2019-05-19T13:15:45.454Z,12.00
2019-05-19T13:16:49.986Z,9.50
2019-05-19T13:17:54.620Z,8.75
2019-05-19T13:18:59.575Z,9.50
2019-05-19T13:20:14.169Z,9.50
2019-05-19T13:21:25.991Z,11.00
2019-05-19T13:22:25.444Z,11.00
2019-05-19T13:23:31.133Z,9.50
2019-05-19T13:24:34.236Z,11.00
2019-05-19T13:25:43.142Z,11.00
2019-05-19T13:26:55.992Z,11.50
2019-05-19T13:27:52.795Z,9.00
2019-05-19T13:28:56.579Z,11.00
2019-05-19T13:30:00.244Z,13.50
2019-05-19T13:31:06.344Z,12.00
2019-05-19T13:32:09.715Z,12.00
2019-05-19T13:33:14.842Z,12.00
2019-05-19T13:34:19.400Z,11.50
2019-05-19T13:35:22.535Z,9.50
2019-05-19T13:36:28.899Z,10.75
2019-05-19T13:37:32.032Z,12.25
2019-05-19T13:38:35.498Z,12.50
2019-05-19T13:39:41.170Z,12.00
2019-05-19T13:40:47.472Z,13.50
2019-05-19T13:41:57.231Z,12.00
2019-05-19T13:43:00.817Z,14.50
2019-05-19T13:44:04.282Z,13.75
2019-05-19T13:45:07.646Z,15.75
2019-05-19T13:46:16.936Z,13.00
2019-05-19T13:47:24.038Z,17.00
2019-05-19T13:48:27.275Z,19.25
2019-05-19T13:49:30.838Z,19.25
2019-05-19T13:50:33.697Z,15.00
2019-05-19T13:51:42.818Z,20.00
2019-05-19T13:52:45.964Z,19.00
2019-05-19T13:53:54.079Z,20.25
2019-05-19T13:54:57.393Z,17.50
2019-05-19T13:56:00.767Z,19.00
2019-05-19T13:57:12.323Z,16.25
2019-05-19T13:58:15.076Z,16.75
2019-05-19T13:59:15.536Z,17.75
2019-05-19T14:00:21.201Z,18.00
2019-05-19T14:01:28.439Z,16.00
2019-05-19T14:02:30.216Z,13.25
2019-05-19T14:03:33.451Z,17.00
2019-05-19T14:04:37.065Z,16.75
2019-05-19T14:05:40.062Z,16.75
2019-05-19T14:06:43.494Z,16.50
2019-05-19T14:07:51.838Z,16.50
2019-05-19T14:08:55.221Z,15.00
2019-05-19T14:09:59.933Z,16.75
2019-05-19T14:11:03.393Z,17.00
2019-05-19T14:12:06.340Z,15.75
2019-05-19T14:13:09.842Z,16.00
2019-05-19T14:14:14.501Z,16.50
2019-05-19T14:15:17.910Z,15.00
2019-05-19T14:16:20.797Z,16.75
2019-05-19T14:17:24.344Z,16.00
2019-05-19T14:18:27.300Z,14.25
2019-05-19T14:19:30.692Z,15.75
2019-05-19T14:20:34.113Z,13.00
2019-05-19T14:21:37.662Z,13.00
2019-05-19T14:22:40.476Z,13.00
2019-05-19T14:23:43.903Z,12.50
2019-05-19T14:24:49.930Z,10.50